Racine, Ohio
Current Conditions -  °F | °C
As of 9:35 AM on Tuesday 21 Oct 2014 (Local Time) from K3I2 Reporting Station
Haze Haze  
Wind Chill: 54°   Ceiling: 2000
Heat Index: 54°   Visibility: 5mi
Dew Point: 52°   Wind: 3mph
Humidity: 94%   Direction: 270°W
Pressure: 29.95"   Gusts: NA
Location:  38.97°N, 81.91°W
Report Text: K3I2 211335Z AUTO 27003KT 5SM BR SCT009 BKN020 OVC033 12/11 A2995 RMK AO2
Loading
Personal Weather Stations






























Interactive Weather Map
Tropical Storm Tracking
New forecast layout! Learn more

10-Day Weather Forecast

Advertisements
Track Severe Weather on mobile